Home > Products > Valid Products > TAF

000
FTUS42 KGSP 310537
TAFGSP
TAF
KGSP 310537Z 3106/0106 36003KT P6SM SCT250
     FM311400 04003KT P6SM FEW060 BKN140
     FM311700 00000KT P6SM SCT060 BKN120
     FM010100 33006KT P6SM VCSH BKN060
     FM010500 33010KT P6SM -RA BKN050=



000
FTUS42 KGSP 310537
TAFCLT
TAF
KCLT 310537Z 3106/0106 07003KT P6SM SCT250
     FM311400 04005KT P6SM FEW060 SCT100 BKN250
     FM312200 VRB04KT P6SM VCSH BKN060 OVC100
     FM010200 35004KT P6SM -RA SCT040 OVC060=



000
FTUS42 KGSP 310537
TAFAVL
TAF
KAVL 310537Z 3106/0106 33003KT P6SM SCT210
     FM311800 34003KT P6SM SCT050 OVC080
     FM312100 35008KT P6SM VCSH OVC050
     FM010200 35009KT P6SM -SHRA OVC026
     FM010500 34012KT P6SM -SHSN BKN017=



000
FTUS42 KGSP 302335
TAFCLT
TAF
KCLT 302335Z 3100/3124 04003KT P6SM SCT250
     FM311200 02004KT P6SM FEW050 BKN250
     FM311800 24005KT P6SM SCT050 BKN130=



000
FTUS42 KGSP 302335
TAFGSP
TAF
KGSP 302335Z 3100/3124 00000KT P6SM SCT250
     FM311200 03004KT P6SM FEW050 BKN250
     FM311800 25006KT P6SM SCT050 BKN130=



000
FTUS42 KGSP 302335
TAFAVL
TAF
KAVL 302335Z 3100/3124 34005KT P6SM SCT250
     FM311200 34005KT P6SM SCT045 BKN250
     FM311800 34007KT P6SM BKN045=



000
FTUS42 KGSP 302056 AAA
TAFCLT
TAF AMD
KCLT 302056Z 3021/3118 36004KT P6SM SKC
     FM310000 02003KT P6SM SKC
     FM310900 03003KT P6SM FEW045
     FM311500 05003KT P6SM FEW045 SCT250
     FM311700 30003KT P6SM SCT045 BKN250=



000
FTUS42 KGSP 301720
TAFAVL
TAF
KAVL 301720Z 3018/3118 33008KT P6SM SKC
     FM311000 32003KT P6SM SCT045
     FM311200 31004KT P6SM SCT024
     FM311300 31004KT P6SM BKN045=



000
FTUS42 KGSP 301720
TAFCLT
TAF
KCLT 301720Z 3018/3118 36008KT P6SM SKC
     FM310000 02003KT P6SM SKC
     FM310900 03003KT P6SM FEW045
     FM311500 05003KT P6SM FEW045 SCT250
     FM311700 30003KT P6SM SCT045 BKN250=



000
FTUS42 KGSP 301720
TAFGSP
TAF
KGSP 301720Z 3018/3118 07007KT P6SM SKC
      TEMPO 3018/3022 15007KT
     FM310000 05003KT P6SM SKC
     FM310800 36003KT P6SM SCT045
     FM311700 29003KT P6SM FEW045 SCT150=



000
FTUS42 KGSP 301459 AAA
TAFCLT
TAF AMD
KCLT 301459Z 3015/3112 03010G16KT P6SM FEW060
     FM302300 04004KT P6SM SKC=



000
FTUS42 KGSP 301120
TAFCLT
TAF
KCLT 301120Z 3012/3112 01006KT P6SM FEW060
     FM302300 04004KT P6SM SKC=



000
FTUS42 KGSP 301120
TAFGSP
TAF
KGSP 301120Z 3012/3112 02006KT P6SM FEW200
     FM301800 04004KT P6SM SKC=



000
FTUS42 KGSP 301120
TAFAVL
TAF
KAVL 301120Z 3012/3112 36010KT P6SM FEW250
     FM301400 35006KT P6SM FEW250=



000
FTUS42 KGSP 300908 AAA
TAFCLT
TAF AMD
KCLT 300908Z 3009/3106 01006KT P6SM FEW200
     FM302300 04004KT P6SM SKC=



000
FTUS42 KGSP 300528
TAFGSP
TAF
KGSP 300528Z 3006/3106 01007KT P6SM SCT050 SCT250
     FM300900 01006KT P6SM FEW200
     FM301800 03003KT P6SM SKC=



000
FTUS42 KGSP 300528
TAFCLT
TAF
KCLT 300528Z 3006/3106 02008KT P6SM SCT050 BKN250
     FM300900 01006KT P6SM FEW200
     FM302300 04004KT P6SM SKC=



000
FTUS42 KGSP 300528
TAFAVL
TAF
KAVL 300528Z 3006/3106 35010KT P6SM FEW250
     FM301400 34006KT P6SM FEW250=



000
FTUS42 KGSP 300228 AAA
TAFCLT
TAF AMD
KCLT 300228Z 3002/3024 36007KT P6SM SCT040 BKN120
      TEMPO 3002/3004 BKN040
     FM300500 36006KT P6SM SCT250
     FM302100 03003KT P6SM SKC=



000
FTUS42 KGSP 292333
TAFGSP
TAF
KGSP 292333Z 3000/3024 34006KT P6SM BKN035
      TEMPO 3000/3001 BKN025
     FM300100 34006KT P6SM FEW040 BKN250
     FM300400 01006KT P6SM FEW250
     FM301800 VRB03KT P6SM SKC=



000
FTUS42 KGSP 292333
TAFCLT
TAF
KCLT 292333Z 3000/3024 29007KT P6SM VCSH SCT060 BKN120
     FM300200 36006KT P6SM SCT250
     FM302100 03003KT P6SM SKC=



000
FTUS42 KGSP 292333
TAFAVL
TAF
KAVL 292333Z 3000/3024 34010G20KT P6SM BKN250
     FM300400 35008KT P6SM FEW250
     FM301800 34006KT P6SM SKC=



000
FTUS42 KGSP 292101 AAB
TAFAVL
TAF AMD
KAVL 292101Z 2921/3018 34012G20KT P6SM SCT018 BKN060
      TEMPO 2921/2924 BKN018
     FM300000 34008KT P6SM SCT200=



000
FTUS42 KGSP 292059 AAA
TAFCLT
TAF AMD
KCLT 292059Z 2921/3018 25011KT P6SM FEW045 BKN120
     FM292300 30007KT P6SM FEW045 BKN250
     FM300300 01006KT P6SM SKC=



000
FTUS42 KGSP 291904 AAA
TAFAVL
TAF AMD
KAVL 291904Z 2919/3018 34012G18KT P6SM SCT045 OVC060
     FM292200 34008KT P6SM SCT200=



000
FTUS42 KGSP 291720
TAFCLT
TAF
KCLT 291720Z 2918/3018 24007KT P6SM VCSH BKN050 OVC250
     FM292100 30007KT P6SM OVC050
     FM300300 01006KT P6SM SKC=



000
FTUS42 KGSP 291720
TAFGSP
TAF
KGSP 291720Z 2918/3018 24008KT P6SM VCSH OVC050
     FM292100 30006KT P6SM BKN045
     FM300100 36006KT P6SM SCT050
     FM300500 01005KT P6SM SKC=



000
FTUS42 KGSP 291720
TAFAVL
TAF
KAVL 291720Z 2918/3018 34008KT P6SM BKN040
     FM292200 34008KT P6SM SCT200=



000
FTUS42 KGSP 291459 AAA
TAFCLT
TAF AMD
KCLT 291459Z 2915/3012 24008KT P6SM FEW150 BKN250
     FM291800 23009KT P6SM VCSH SCT030 BKN050
     FM292100 29007KT P6SM SCT030 BKN050
     FM292300 33006KT P6SM SCT050
     FM300100 01007KT P6SM SCT050=



000
FTUS42 KGSP 291123
TAFCLT
TAF
KCLT 291123Z 2912/3012 23006KT P6SM BKN250
     FM291500 23008KT P6SM BKN150
     FM291900 26009KT P6SM SCT025 BKN040
     FM292100 28005KT P6SM SCT025 BKN035
     FM292300 33006KT P6SM SCT025
     FM300100 01007KT P6SM SCT040=



000
FTUS42 KGSP 291123
TAFAVL
TAF
KAVL 291123Z 2912/3012 00000KT P6SM SCT250
     FM291300 34003KT P6SM OVC070
     FM291600 34007KT P6SM -SHRA OVC035
     FM291800 35009KT P6SM SCT030 BKN050
     FM300300 36009KT P6SM SCT250=



000
FTUS42 KGSP 291123
TAFGSP
TAF
KGSP 291123Z 2912/3012 23005KT P6SM BKN250
     FM291500 23008KT P6SM BKN080
     FM291800 26009KT P6SM VCSH SCT025 BKN035
     FM292100 31007KT P6SM BKN035
     FM300500 01005KT P6SM SCT150=



000
FTUS42 KGSP 290849 AAA
TAFCLT
TAF AMD
KCLT 290849Z 2909/3006 23004KT P6SM BKN250
     FM291500 23008KT P6SM BKN150
     FM291900 26009KT P6SM SCT030 BKN040
     FM292100 28005KT P6SM SCT020 BKN035
     FM292300 31006KT P6SM SCT025
     FM300100 34007KT P6SM BKN040=



000
FTUS42 KGSP 290539
TAFCLT
TAF
KCLT 290539Z 2906/3006 23004KT P6SM BKN250
     FM291500 23008KT P6SM BKN150
     FM291900 26009KT P6SM SCT030 BKN040
     FM292100 28005KT P6SM SCT020 BKN035
     FM292300 31006KT P6SM SCT025
     FM300100 34007KT P6SM BKN040=



000
FTUS42 KGSP 290539
TAFGSP
TAF
KGSP 290539Z 2906/3006 00000KT P6SM BKN250
     FM291500 23008KT P6SM BKN080
     FM291800 26009KT P6SM VCSH SCT025 BKN035
     FM292000 31007KT P6SM BKN035
     FM292100 35006KT P6SM OVC035
     FM300500 36005KT P6SM SCT150=



000
FTUS42 KGSP 290539
TAFAVL
TAF
KAVL 290539Z 2906/3006 00000KT P6SM SCT250
     FM291200 20003KT P6SM OVC070
     FM291600 34007KT P6SM -SHRA OVC035
     FM291800 35009KT P6SM SCT030 BKN050
     FM300300 36009KT P6SM SCT250=



000
FTUS42 KGSP 282334
TAFGSP
TAF
KGSP 282334Z 2900/2924 22007KT P6SM BKN250
     FM291200 23005KT P6SM BKN045 PROB30 2915/2919 5SM SHRA SCT025
      OVC035
     FM292000 32004KT P6SM OVC050=



000
FTUS42 KGSP 282334
TAFAVL
TAF
KAVL 282334Z 2900/2924 19005KT P6SM FEW150 BKN250
     FM291000 30003KT P6SM SCT040 OVC100
     FM291300 30005KT P6SM OVC030
      TEMPO 2913/2917 3SM SHRA BR OVC015
     FM291700 32008KT P6SM VCSH OVC040
     FM292100 33008KT P6SM SCT080=



000
FTUS42 KGSP 282334
TAFCLT
TAF
KCLT 282334Z 2900/2924 22004KT P6SM BKN250
     FM290500 21005KT P6SM SCT045 BKN150
     FM291400 23006KT P6SM BKN045
     FM291700 25008KT P6SM SCT028 BKN050 PROB30 2917/2923 5SM SHRA
      BKN028
     FM292300 30006KT P6SM OVC050=



000
FTUS42 KGSP 282132 AAC
TAFCLT
TAF AMD
KCLT 282132Z 2822/2918 23008G14KT P6SM FEW070 SCT250
     FM282300 22005KT P6SM BKN250
     FM291400 23010KT P6SM FEW010 SCT150 BKN250
     FM291700 30010KT P6SM VCSH BKN025=



000
FTUS42 KGSP 281902 AAB
TAFCLT
TAF AMD
KCLT 281902Z 2819/2918 21010G20KT P6SM FEW250
     FM282200 20005KT P6SM FEW250
     FM291400 23010KT P6SM FEW010 SCT150 BKN250
     FM291700 30010KT P6SM VCSH BKN025=



000
FTUS42 KGSP 281808 AAA
TAFCLT
TAF AMD
KCLT 281808Z 2818/2918 23010G16KT P6SM FEW250
     FM282200 20005KT P6SM FEW250
     FM291400 23010KT P6SM FEW010 SCT150 BKN250
     FM291700 30010KT P6SM VCSH BKN025=



000
FTUS42 KGSP 281720
TAFCLT
TAF
KCLT 281720Z 2818/2918 21008G14KT P6SM FEW250
     FM282200 20005KT P6SM FEW250
     FM291400 23010KT P6SM FEW010 SCT150 BKN250
     FM291700 30010KT P6SM VCSH BKN025=



000
FTUS42 KGSP 281720
TAFGSP
TAF
KGSP 281720Z 2818/2918 24008G14KT P6SM FEW250
     FM290000 21004KT P6SM SCT250
     FM291200 24006KT P6SM SCT025 BKN060
     FM291700 31006KT P6SM VCSH BKN025=



000
FTUS42 KGSP 281720
TAFAVL
TAF
KAVL 281720Z 2818/2918 21008G14KT P6SM FEW250
      TEMPO 2818/2820 19016G23KT
     FM290100 20004KT P6SM SCT250
     FM291000 30003KT P6SM SCT050 BKN100
     FM291100 32005KT P6SM VCSH BKN017
     FM291600 32009G15KT P6SM BKN025=



000
FTUS42 KGSP 281502 AAA
TAFCLT
TAF AMD
KCLT 281502Z 2815/2912 24006KT P6SM FEW250
     FM281700 22008G17KT P6SM FEW250
     FM290100 21004KT P6SM BKN250=



000
FTUS42 KGSP 281122
TAFCLT
TAF
KCLT 281122Z 2812/2912 16005KT P6SM SKC
     FM281700 20008KT P6SM FEW250
     FM290100 21004KT P6SM BKN250=



000
FTUS42 KGSP 281122
TAFGSP
TAF
KGSP 281122Z 2812/2912 20003KT P6SM SKC
     FM281700 21008KT P6SM FEW250
     FM290100 22004KT P6SM BKN250=



000
FTUS42 KGSP 281122
TAFAVL
TAF
KAVL 281122Z 2812/2912 18003KT P6SM SKC
     FM281700 19006KT P6SM FEW250
     FM291000 35004KT P6SM BKN035 BKN200=



000
FTUS42 KGSP 280858 AAA
TAFCLT
TAF AMD
KCLT 280858Z 2809/2906 18003KT P6SM SKC
     FM281700 21006KT P6SM FEW250=



    US Dept of Commerce
    National Oceanic and Atmospheric Administration
    National Weather Service
    1325 East West Highway
    Silver Spring, MD 20910
    Page Author: NWS Internet Services Team
Disclaimer
Information Quality
Credits
Glossary
Privacy Policy
Freedom of Information Act (FOIA)
About Us
Career Opportunities